Time;durP1;ratioP1;P1;durP2;ratioP2;P2;SDS_P1;SDS_P2;PMS_P1;PMS_P2;Temp;Humidity;BMP_temperature;BMP_pressure;BME280_temperature;BME280_humidity;BME280_pressure;Samples;Min_cycle;Max_cycle;Signal;HPM_P1;HPM_P2
2021/01/23 00:01:26;;;;;;;8.20;7.20;;;;;;;7.95;61.67;93021.66;5030984;28;20329;-74
2021/01/23 00:03:52;;;;;;;7.60;6.87;;;;;;;7.95;61.20;93013.97;5031336;28;20686;-75
2021/01/23 00:06:19;;;;;;;7.53;6.83;;;;;;;7.89;62.09;93020.00;5031097;28;20221;-75
2021/01/23 00:08:44;;;;;;;7.50;6.80;;;;;;;7.85;61.64;93021.47;5031659;28;20252;-75
2021/01/23 00:11:10;;;;;;;8.07;7.10;;;;;;;7.87;61.83;93018.69;5030838;28;20243;-75
2021/01/23 00:13:37;;;;;;;8.67;7.70;;;;;;;7.78;62.06;93025.13;5030995;28;20201;-75
2021/01/23 00:16:04;;;;;;;8.30;7.50;;;;;;;7.86;61.92;93032.47;5030807;28;20191;-75
2021/01/23 00:18:30;;;;;;;8.73;7.83;;;;;;;7.88;61.69;93035.59;5031225;28;20582;-75
2021/01/23 00:20:55;;;;;;;8.20;7.33;;;;;;;7.85;61.92;93043.72;5030461;28;20226;-75
2021/01/23 00:23:21;;;;;;;10.47;7.87;;;;;;;7.75;62.17;93057.06;5030740;28;20221;-75
2021/01/23 00:25:47;;;;;;;8.63;7.73;;;;;;;7.62;62.85;93078.53;5030930;28;20692;-75
2021/01/23 00:28:13;;;;;;;10.27;8.40;;;;;;;7.62;62.49;93083.66;5031037;28;20206;-76
2021/01/23 00:30:40;;;;;;;8.37;7.57;;;;;;;7.66;62.26;93098.59;5030695;28;20732;-75
2021/01/23 00:33:06;;;;;;;8.80;7.90;;;;;;;7.61;62.62;93109.50;5030624;28;20197;-76
2021/01/23 00:35:32;;;;;;;9.23;8.33;;;;;;;7.49;63.58;93111.25;5030247;28;20205;-76
2021/01/23 00:37:58;;;;;;;9.63;8.73;;;;;;;7.45;63.57;93120.34;5030917;28;20713;-76
2021/01/23 00:40:24;;;;;;;9.43;8.53;;;;;;;7.47;63.93;93131.94;5030691;28;20198;-76
2021/01/23 00:42:50;;;;;;;9.60;8.60;;;;;;;7.36;64.62;93129.31;5030503;28;20628;-75
2021/01/23 00:45:16;;;;;;;9.97;8.93;;;;;;;7.41;63.84;93132.78;5030333;28;20276;-76
2021/01/23 00:47:43;;;;;;;9.97;8.97;;;;;;;7.38;64.92;93150.34;5030136;28;20194;-75
2021/01/23 00:50:10;;;;;;;9.60;8.60;;;;;;;7.39;64.90;93157.81;5030635;28;20213;-75
2021/01/23 00:52:36;;;;;;;9.70;8.73;;;;;;;7.51;64.19;93153.53;5030291;28;20214;-74
2021/01/23 00:55:02;;;;;;;9.50;8.50;;;;;;;7.52;65.47;93164.53;5030398;28;20260;-74
2021/01/23 00:57:28;;;;;;;11.60;9.10;;;;;;;7.55;65.19;93159.00;5030284;28;20197;-75
2021/01/23 00:59:54;;;;;;;10.10;9.03;;;;;;;7.58;65.53;93161.91;5030472;28;20226;-75
2021/01/23 01:02:20;;;;;;;11.00;9.17;;;;;;;7.49;66.55;93165.00;5029822;28;20229;-75
2021/01/23 01:04:47;;;;;;;9.83;8.83;;;;;;;7.45;66.61;93167.22;5030111;28;20198;-74
2021/01/23 01:07:13;;;;;;;9.90;8.90;;;;;;;7.45;67.26;93171.53;5030809;28;20202;-76
2021/01/23 01:09:38;;;;;;;9.53;8.63;;;;;;;7.38;67.84;93184.41;5030121;28;20248;-76
2021/01/23 01:12:05;;;;;;;9.93;8.90;;;;;;;7.41;67.54;93199.34;5030104;28;20218;-75
2021/01/23 01:14:31;;;;;;;10.20;9.23;;;;;;;7.35;69.17;93202.75;5029952;28;20638;-75
2021/01/23 01:16:57;;;;;;;10.00;9.00;;;;;;;7.26;70.36;93209.19;5030141;28;20206;-76
2021/01/23 01:19:23;;;;;;;10.27;9.27;;;;;;;7.32;70.33;93221.09;5029737;28;20577;-75
2021/01/23 01:21:49;;;;;;;11.00;9.37;;;;;;;7.26;70.61;93219.41;5030133;28;20237;-75
2021/01/23 01:24:15;;;;;;;10.07;9.07;;;;;;;7.13;72.50;93219.53;5029916;28;20198;-76
2021/01/23 01:26:41;;;;;;;9.97;9.00;;;;;;;7.11;73.09;93227.44;5030203;28;20209;-76
2021/01/23 01:29:07;;;;;;;10.13;9.10;;;;;;;7.06;73.27;93240.09;5029697;28;20206;-75
2021/01/23 01:31:33;;;;;;;9.67;8.67;;;;;;;7.00;74.50;93237.59;5030006;28;20228;-75
2021/01/23 01:33:59;;;;;;;9.87;8.87;;;;;;;7.12;73.48;93241.78;5029587;28;20197;-76
2021/01/23 01:36:25;;;;;;;9.47;8.50;;;;;;;7.00;75.07;93255.50;5033881;28;20198;-75
2021/01/23 01:38:51;;;;;;;8.80;8.00;;;;;;;6.98;75.04;93248.03;5033966;28;20625;-74
2021/01/23 01:41:17;;;;;;;8.23;7.43;;;;;;;6.92;75.72;93247.13;5034152;28;20218;-75
2021/01/23 01:43:45;;;;;;;8.70;7.90;;;;;;;6.89;76.67;93251.88;5034054;28;20574;-75
2021/01/23 01:46:13;;;;;;;8.60;7.70;;;;;;;6.94;76.65;93252.00;5033564;28;20197;-75
2021/01/23 01:48:39;;;;;;;7.90;7.10;;;;;;;6.84;77.01;93264.50;5033899;28;20264;-76
2021/01/23 01:51:05;;;;;;;7.77;7.07;;;;;;;6.81;77.54;93270.03;5033687;28;20705;-74
2021/01/23 01:53:31;;;;;;;7.67;6.97;;;;;;;6.94;76.87;93280.13;5033582;28;20556;-74
2021/01/23 01:55:59;;;;;;;6.87;6.17;;;;;;;6.89;76.91;93285.91;5033590;28;20190;-76
2021/01/23 01:58:25;;;;;;;6.80;6.20;;;;;;;6.98;76.99;93299.19;5033582;28;20198;-75
2021/01/23 02:00:53;;;;;;;6.20;5.70;;;;;;;6.98;76.47;93306.09;5033638;28;20689;-75
2021/01/23 02:03:34;;;;;;;6.53;6.03;;;;;;;6.79;77.26;93323.94;5033663;28;20226;-76
2021/01/23 02:06:12;;;;;;;5.67;5.17;;;;;;;6.54;79.53;93338.50;5033323;28;20252;-76
2021/01/23 02:08:48;;;;;;;5.83;4.80;;;;;;;6.52;78.73;93345.59;5033730;28;20198;-75
2021/01/23 02:11:27;;;;;;;4.53;4.13;;;;;;;6.48;78.42;93360.53;5033381;28;20268;-75
2021/01/23 02:14:07;;;;;;;3.60;3.30;;;;;;;6.34;76.66;93359.06;5033471;28;20198;-75
2021/01/23 02:16:37;;;;;;;2.67;2.47;;;;;;;6.17;76.60;93361.28;5033414;28;20198;-75
2021/01/23 02:19:10;;;;;;;2.07;1.97;;;;;;;5.94;77.24;93367.91;5022074;28;20194;-76
2021/01/23 02:21:51;;;;;;;2.10;1.90;;;;;;;5.75;78.00;93377.94;5033072;28;20791;-74
2021/01/23 02:24:23;;;;;;;1.80;1.70;;;;;;;5.84;77.35;93381.81;5020003;28;20346;-76
2021/01/23 02:27:05;;;;;;;2.00;1.90;;;;;;;5.70;78.14;93384.63;5033104;28;20202;-75
2021/01/23 02:29:41;;;;;;;2.23;2.03;;;;;;;5.80;78.26;93390.09;5033326;28;20194;-75
2021/01/23 02:32:09;;;;;;;1.97;1.87;;;;;;;5.72;77.39;93396.22;5032904;28;20654;-76
2021/01/23 02:34:37;;;;;;;1.90;1.80;;;;;;;5.59;77.66;93414.09;5032954;28;20620;-75
2021/01/23 02:37:05;;;;;;;1.60;1.50;;;;;;;5.42;78.16;93411.16;5033001;28;20195;-75
2021/01/23 02:39:33;;;;;;;1.60;1.50;;;;;;;5.48;77.44;93423.16;5032561;28;20210;-76
2021/01/23 02:41:59;;;;;;;1.67;1.57;;;;;;;5.52;77.46;93431.19;5032509;28;20226;-76
2021/01/23 02:44:25;;;;;;;1.63;1.53;;;;;;;5.54;77.25;93429.22;5032420;28;20213;-76
2021/01/23 02:46:53;;;;;;;1.50;1.40;;;;;;;5.38;78.49;93443.19;5030970;28;20205;-75
2021/01/23 02:49:21;;;;;;;1.67;1.57;;;;;;;5.38;77.42;93448.28;5032655;28;20213;-76
2021/01/23 02:52:00;;;;;;;1.60;1.50;;;;;;;5.30;77.94;93447.69;5032119;28;20214;-76
2021/01/23 02:54:35;;;;;;;1.60;1.50;;;;;;;5.26;78.02;93464.38;5032195;28;20571;-76
2021/01/23 02:57:02;;;;;;;1.40;1.30;;;;;;;5.14;78.63;93466.72;5032148;28;20236;-76
2021/01/23 02:59:31;;;;;;;1.30;1.20;;;;;;;4.98;79.14;93490.84;5032326;28;20235;-76
2021/01/23 03:01:57;;;;;;;1.90;1.50;;;;;;;5.00;79.56;93493.97;5032652;28;20799;-76
2021/01/23 03:04:24;;;;;;;1.40;1.30;;;;;;;4.97;79.83;93512.22;5032227;28;20574;-76
2021/01/23 03:06:50;;;;;;;1.30;1.20;;;;;;;4.90;80.47;93500.41;5032146;28;20191;-76
2021/01/23 03:09:18;;;;;;;1.40;1.30;;;;;;;4.76;81.03;93495.28;5032312;28;20576;-76
2021/01/23 03:11:44;;;;;;;1.00;1.00;;;;;;;4.54;82.14;93488.75;5031860;28;20222;-76
2021/01/23 03:14:10;;;;;;;1.23;1.13;;;;;;;4.60;83.10;93505.06;5032114;28;20576;-76
2021/01/23 03:16:36;;;;;;;1.17;1.10;;;;;;;4.69;81.77;93519.19;5031891;28;20217;-75
2021/01/23 03:19:03;;;;;;;1.13;1.10;;;;;;;4.72;82.44;93541.75;5032086;28;20198;-76
2021/01/23 03:21:30;;;;;;;1.00;1.00;;;;;;;4.61;82.08;93537.22;5031278;28;20234;-76
2021/01/23 03:23:56;;;;;;;0.80;0.80;;;;;;;4.60;81.86;93543.28;5031570;28;20198;-76
2021/01/23 03:26:22;;;;;;;0.90;0.87;;;;;;;4.63;82.02;93553.06;5031558;28;20210;-76
2021/01/23 03:28:48;;;;;;;0.80;0.80;;;;;;;4.57;82.67;93566.59;5031766;28;20205;-76
2021/01/23 03:31:14;;;;;;;0.90;0.90;;;;;;;4.55;83.14;93587.16;5031722;28;20248;-76
2021/01/23 03:33:40;;;;;;;0.80;0.70;;;;;;;4.54;82.59;93597.53;5031929;28;20858;-76
2021/01/23 03:36:06;;;;;;;0.80;0.80;;;;;;;4.51;82.93;93612.22;5031644;28;20205;-76
2021/01/23 03:38:33;;;;;;;0.70;0.70;;;;;;;4.53;82.16;93603.59;5031483;28;20632;-76
2021/01/23 03:40:59;;;;;;;0.80;0.80;;;;;;;4.49;82.70;93605.72;5031274;28;20221;-76
2021/01/23 03:43:25;;;;;;;0.70;0.70;;;;;;;4.52;82.37;93607.91;5031580;28;20222;-76
2021/01/23 03:45:51;;;;;;;0.80;0.80;;;;;;;4.62;81.60;93602.50;5031201;28;20206;-76
2021/01/23 03:48:17;;;;;;;0.80;0.80;;;;;;;4.50;81.84;93590.25;5031395;28;20206;-76
2021/01/23 03:50:42;;;;;;;0.90;0.90;;;;;;;4.40;82.67;93592.38;5031144;28;20251;-76
2021/01/23 03:53:08;;;;;;;0.80;0.80;;;;;;;4.43;82.47;93604.72;5031448;28;20593;-76
2021/01/23 03:55:36;;;;;;;0.50;0.50;;;;;;;4.16;83.56;93606.31;5031146;28;20197;-76
2021/01/23 03:58:02;;;;;;;0.60;0.60;;;;;;;4.09;84.18;93602.94;5030579;28;20720;-76
2021/01/23 04:00:28;;;;;;;0.77;0.77;;;;;;;4.06;84.35;93620.34;5031159;28;20198;-75
2021/01/23 04:02:54;;;;;;;0.60;0.60;;;;;;;4.05;85.41;93613.69;5031028;28;20237;-76
2021/01/23 04:05:20;;;;;;;0.60;0.60;;;;;;;4.16;84.65;93611.44;5031183;28;20206;-76
2021/01/23 04:07:46;;;;;;;0.60;0.60;;;;;;;4.18;84.03;93613.78;5030660;28;20245;-76
2021/01/23 04:10:13;;;;;;;0.60;0.60;;;;;;;4.27;83.77;93620.28;5030957;28;20210;-76
2021/01/23 04:12:40;;;;;;;0.60;0.60;;;;;;;4.22;83.94;93625.19;5030789;28;20575;-76
2021/01/23 04:15:08;;;;;;;0.60;0.60;;;;;;;4.30;83.05;93634.41;5030899;28;20201;-76
2021/01/23 04:17:34;;;;;;;0.50;0.50;;;;;;;4.29;83.09;93648.91;5030734;28;20194;-76
2021/01/23 04:19:59;;;;;;;0.50;0.50;;;;;;;4.27;83.09;93633.03;5030783;28;20719;-76
2021/01/23 04:22:25;;;;;;;0.50;0.50;;;;;;;4.21;83.66;93638.88;5030422;28;20225;-76
2021/01/23 04:24:51;;;;;;;0.60;0.60;;;;;;;4.31;83.34;93648.72;5030379;28;20213;-75
2021/01/23 04:27:17;;;;;;;0.63;0.60;;;;;;;4.12;83.11;93639.97;5030717;28;20273;-76
2021/01/23 04:29:44;;;;;;;0.50;0.50;;;;;;;4.15;83.96;93654.91;5030686;28;20297;-76
2021/01/23 04:32:10;;;;;;;0.60;0.60;;;;;;;4.22;84.01;93658.28;5030480;28;20218;-76
2021/01/23 04:34:36;;;;;;;0.53;0.53;;;;;;;4.30;83.49;93665.78;5030685;28;20205;-76
2021/01/23 04:37:02;;;;;;;0.50;0.50;;;;;;;4.26;83.13;93672.19;5030439;28;20222;-76
2021/01/23 04:39:28;;;;;;;0.80;0.50;;;;;;;4.30;82.19;93683.59;5031012;28;20669;-76
2021/01/23 04:41:54;;;;;;;0.60;0.60;;;;;;;4.15;82.82;93688.00;5030357;28;20245;-76
2021/01/23 04:44:23;;;;;;;0.60;0.60;;;;;;;4.00;85.23;93702.56;5030348;28;20731;-76
2021/01/23 04:46:51;;;;;;;0.60;0.60;;;;;;;4.01;84.21;93701.59;5030403;28;20194;-76
2021/01/23 04:49:17;;;;;;;0.50;0.50;;;;;;;4.03;84.88;93715.72;5030156;28;20194;-76
2021/01/23 04:51:43;;;;;;;0.50;0.50;;;;;;;4.10;84.17;93724.19;5029914;28;20569;-76
2021/01/23 04:54:09;;;;;;;0.50;0.50;;;;;;;4.18;84.13;93730.13;5030063;28;20234;-76
2021/01/23 04:56:35;;;;;;;0.50;0.50;;;;;;;4.06;83.23;93748.44;5029970;28;20194;-76
2021/01/23 04:59:01;;;;;;;0.60;0.60;;;;;;;4.04;83.98;93737.63;5030054;28;20206;-76
2021/01/23 05:01:27;;;;;;;0.50;0.50;;;;;;;3.96;84.74;93744.63;5029944;28;20271;-75
2021/01/23 05:03:55;;;;;;;0.70;0.70;;;;;;;3.91;84.45;93742.63;5029910;28;20222;-76
2021/01/23 05:06:21;;;;;;;0.50;0.50;;;;;;;3.96;85.41;93731.91;5013519;28;20198;-76
2021/01/23 05:08:47;;;;;;;0.60;0.60;;;;;;;3.89;84.86;93728.50;5030014;28;20234;-76
2021/01/23 05:11:12;;;;;;;0.47;0.47;;;;;;;4.00;85.08;93736.44;5029254;28;20210;-76
2021/01/23 05:13:38;;;;;;;0.50;0.50;;;;;;;3.95;85.08;93743.84;5029972;28;20204;-75
2021/01/23 05:16:24;;;;;;;0.50;0.50;;;;;;;3.98;85.06;93755.41;5029751;28;20566;-76
2021/01/23 05:18:56;;;;;;;0.57;0.57;;;;;;;3.96;85.33;93754.81;5029973;28;20271;-76
2021/01/23 05:21:22;;;;;;;0.60;0.60;;;;;;;3.82;86.36;93746.25;5029731;28;20233;-76
2021/01/23 05:24:02;;;;;;;0.60;0.60;;;;;;;3.74;87.59;93754.00;5029536;28;20801;-76
2021/01/23 05:26:27;;;;;;;0.60;0.60;;;;;;;3.81;87.29;93770.13;5029665;28;20194;-78
2021/01/23 05:28:53;;;;;;;0.60;0.60;;;;;;;3.93;86.57;93755.16;5030518;28;20213;-76
2021/01/23 05:31:19;;;;;;;0.60;0.60;;;;;;;3.89;85.86;93764.13;5029433;28;20222;-76
2021/01/23 05:33:45;;;;;;;0.57;0.57;;;;;;;3.78;86.96;93767.94;5029614;28;20205;-76
2021/01/23 05:36:14;;;;;;;0.60;0.60;;;;;;;3.78;87.49;93757.75;5029040;28;20244;-76
2021/01/23 05:38:41;;;;;;;0.77;0.70;;;;;;;3.81;87.82;93765.84;5030196;28;20205;-76
2021/01/23 05:41:11;;;;;;;0.67;0.67;;;;;;;3.79;86.62;93774.63;5029447;28;20210;-76
2021/01/23 05:43:39;;;;;;;0.60;0.60;;;;;;;3.80;86.76;93771.09;5029671;28;20218;-76
2021/01/23 05:46:06;;;;;;;0.70;0.70;;;;;;;3.76;86.36;93791.03;5029373;28;20201;-76
2021/01/23 05:48:33;;;;;;;0.70;0.70;;;;;;;3.91;86.15;93785.88;5030056;28;20616;-75
2021/01/23 05:50:59;;;;;;;0.67;0.67;;;;;;;3.91;86.15;93806.25;5029450;28;20222;-76
2021/01/23 05:53:26;;;;;;;0.67;0.67;;;;;;;4.00;85.37;93815.38;5029650;28;20892;-75
2021/01/23 05:55:52;;;;;;;0.70;0.70;;;;;;;3.98;84.88;93817.31;5029020;28;20194;-76
2021/01/23 05:58:18;;;;;;;0.60;0.60;;;;;;;4.07;84.03;93835.78;5029558;28;20199;-76
2021/01/23 06:00:47;;;;;;;0.70;0.70;;;;;;;3.97;84.28;93836.09;5029379;28;20194;-76
2021/01/23 06:03:14;;;;;;;0.70;0.70;;;;;;;4.03;83.89;93845.56;5029714;28;20222;-76
2021/01/23 06:05:40;;;;;;;0.70;0.70;;;;;;;4.03;84.33;93857.50;5029309;28;20773;-76
2021/01/23 06:08:06;;;;;;;0.70;0.70;;;;;;;4.03;83.68;93867.69;5029751;28;20265;-76
2021/01/23 06:10:44;;;;;;;0.67;0.67;;;;;;;4.07;83.83;93866.34;5029200;28;20202;-76
2021/01/23 06:13:36;;;;;;;0.70;0.70;;;;;;;4.04;83.58;93864.94;5028691;28;20206;-76
2021/01/23 06:16:02;;;;;;;0.70;0.70;;;;;;;4.19;82.66;93870.03;5028885;28;20729;-76
2021/01/23 06:18:29;;;;;;;0.90;0.90;;;;;;;4.20;82.73;93866.50;5029230;28;20203;-76
2021/01/23 06:20:57;;;;;;;0.73;0.73;;;;;;;4.21;82.63;93864.75;5030383;28;20234;-76
2021/01/23 06:23:43;;;;;;;0.80;0.80;;;;;;;4.28;82.51;93870.69;5032728;28;20218;-76
2021/01/23 06:26:09;;;;;;;1.63;0.97;;;;;;;4.34;82.17;93870.75;5013103;28;20195;-76
2021/01/23 06:28:49;;;;;;;0.97;0.97;;;;;;;4.30;82.54;93874.63;5019781;28;20194;-77
2021/01/23 06:31:35;;;;;;;0.80;0.80;;;;;;;4.32;82.34;93880.34;5032902;28;20763;-75
2021/01/23 06:34:22;;;;;;;1.00;1.00;;;;;;;4.30;81.76;93889.91;5032630;28;20202;-75
2021/01/23 06:36:49;;;;;;;0.90;0.90;;;;;;;4.33;81.57;93898.97;5033028;28;20293;-75
2021/01/23 06:39:15;;;;;;;0.90;0.90;;;;;;;4.32;81.28;93892.28;5033123;28;20194;-75
2021/01/23 06:41:41;;;;;;;1.00;1.00;;;;;;;4.26;81.27;93900.63;5032495;28;20590;-75
2021/01/23 06:44:21;;;;;;;1.00;1.00;;;;;;;4.36;81.63;93911.34;5032612;28;20300;-75
2021/01/23 06:46:57;;;;;;;1.40;1.30;;;;;;;4.29;81.07;93915.56;5032793;28;20198;-76
2021/01/23 06:49:24;;;;;;;1.00;1.00;;;;;;;4.30;80.98;93920.50;5032307;28;20665;-76
2021/01/23 06:51:51;;;;;;;1.00;1.00;;;;;;;4.18;80.69;93921.13;5032641;28;20273;-76
2021/01/23 06:54:18;;;;;;;1.80;1.70;;;;;;;4.30;81.26;93920.50;5032215;28;20722;-76
2021/01/23 06:56:47;;;;;;;1.30;1.20;;;;;;;4.28;80.99;93930.06;5032410;28;20248;-76
2021/01/23 06:59:23;;;;;;;1.00;1.00;;;;;;;4.37;80.92;93933.31;5032466;28;20657;-76
2021/01/23 07:02:00;;;;;;;0.90;0.90;;;;;;;4.28;80.22;93924.97;5032362;28;20229;-76
2021/01/23 07:04:28;;;;;;;0.90;0.90;;;;;;;4.26;80.83;93934.53;5032081;28;20202;-76
2021/01/23 07:06:56;;;;;;;0.80;0.80;;;;;;;4.29;80.13;93929.09;5032257;28;20206;-76
2021/01/23 07:09:43;;;;;;;1.00;0.90;;;;;;;4.42;79.57;93936.91;5031634;28;20206;-76
2021/01/23 07:12:09;;;;;;;0.80;0.80;;;;;;;4.41;79.55;93937.09;5032314;28;20949;-76
2021/01/23 07:14:35;;;;;;;0.90;0.90;;;;;;;4.33;79.67;93943.06;5031977;28;20202;-76
2021/01/23 07:17:01;;;;;;;1.10;0.80;;;;;;;4.40;79.21;93955.88;5032255;28;20260;-76
2021/01/23 07:19:27;;;;;;;0.80;0.80;;;;;;;4.24;80.31;93961.16;5031778;28;20654;-77
2021/01/23 07:21:55;;;;;;;0.90;0.90;;;;;;;4.16;81.14;93974.78;5031837;28;20280;-76
2021/01/23 07:24:21;;;;;;;0.83;0.83;;;;;;;4.03;81.30;93959.34;5031583;28;20195;-76
2021/01/23 07:26:47;;;;;;;0.90;0.90;;;;;;;4.39;86.67;93961.94;5032466;28;20571;-76
2021/01/23 07:29:13;;;;;;;0.90;0.90;;;;;;;4.57;80.84;93967.44;5031393;28;20198;-76
2021/01/23 07:31:39;;;;;;;3.10;1.30;;;;;;;4.69;84.83;93968.53;5031676;28;20215;-76
2021/01/23 07:34:10;;;;;;;2.33;0.90;;;;;;;4.74;79.91;93971.34;5030158;28;20209;-76
2021/01/23 07:36:38;;;;;;;3.80;1.17;;;;;;;4.76;79.66;93969.41;5031169;28;20335;-79
2021/01/23 07:39:08;;;;;;;1.90;1.20;;;;;;;4.85;82.87;93985.38;5028926;28;20248;-76
2021/01/23 07:41:36;;;;;;;15.83;8.13;;;;;;;5.00;82.07;93977.69;5031131;28;20222;-77
2021/01/23 07:44:04;;;;;;;1.53;1.10;;;;;;;4.79;77.79;93989.44;5031456;28;20222;-76
2021/01/23 07:46:34;;;;;;;0.90;0.90;;;;;;;4.71;78.29;93988.75;5031361;28;20202;-77
2021/01/23 07:49:01;;;;;;;1.20;1.10;;;;;;;4.59;78.87;93995.31;5027702;28;20692;-77
2021/01/23 07:51:28;;;;;;;2.97;2.60;;;;;;;4.51;79.09;93996.19;5030843;28;20220;-77
2021/01/23 07:54:05;;;;;;;1.70;1.60;;;;;;;4.62;79.53;94000.03;5030425;28;20269;-77
2021/01/23 07:56:32;;;;;;;1.03;1.03;;;;;;;4.60;78.98;93991.78;5031485;28;20209;-78
2021/01/23 07:58:58;;;;;;;1.73;1.27;;;;;;;4.56;79.30;93999.00;5030893;28;20570;-77
2021/01/23 08:01:23;;;;;;;1.33;1.10;;;;;;;4.59;79.19;93992.75;5030343;28;20218;-78
2021/01/23 08:03:49;;;;;;;1.30;1.20;;;;;;;4.57;79.37;93995.47;5029838;28;20218;-79
2021/01/23 08:06:20;;;;;;;1.33;1.23;;;;;;;4.55;79.14;93997.41;5030298;28;20201;-78
2021/01/23 08:08:47;;;;;;;4.00;1.20;;;;;;;4.58;79.20;93998.81;5030723;28;20668;-78
2021/01/23 08:11:32;;;;;;;1.20;1.20;;;;;;;4.55;78.96;93997.41;5030431;28;20225;-78
2021/01/23 08:14:07;;;;;;;1.40;1.30;;;;;;;4.53;79.70;93999.34;5026383;28;20273;-77
2021/01/23 08:16:33;;;;;;;1.20;1.10;;;;;;;4.54;79.37;94000.13;5029721;28;20198;-78
2021/01/23 08:19:06;;;;;;;1.40;1.30;;;;;;;4.58;79.38;94009.81;5030514;28;20206;-78
2021/01/23 08:21:32;;;;;;;1.10;1.10;;;;;;;4.51;79.54;94001.28;5029200;28;20221;-78
2021/01/23 08:23:58;;;;;;;1.40;1.30;;;;;;;4.53;79.63;94007.00;5030363;28;20280;-78
2021/01/23 08:26:37;;;;;;;1.40;1.30;;;;;;;4.61;78.89;94006.09;5025505;28;20201;-77
2021/01/23 08:29:03;;;;;;;1.43;1.33;;;;;;;4.60;78.80;94004.53;5030360;28;20201;-77
2021/01/23 08:31:29;;;;;;;1.60;1.50;;;;;;;4.58;78.69;94002.16;5027194;28;20230;-77
2021/01/23 08:33:56;;;;;;;1.53;1.43;;;;;;;4.68;79.33;94005.19;5023494;28;20739;-77
2021/01/23 08:36:22;;;;;;;1.50;1.40;;;;;;;4.60;78.56;94005.31;5028643;28;20201;-76
2021/01/23 08:38:55;;;;;;;1.50;1.40;;;;;;;4.68;78.19;94002.66;5028634;28;20198;-77
2021/01/23 08:41:21;;;;;;;1.30;1.20;;;;;;;4.73;78.32;93997.81;5028211;28;20221;-77
2021/01/23 08:43:48;;;;;;;1.57;1.47;;;;;;;4.74;77.52;94001.16;5028388;28;20218;-77
2021/01/23 08:46:13;;;;;;;1.60;1.50;;;;;;;4.76;76.96;93996.66;5028873;28;20206;-77
2021/01/23 08:48:39;;;;;;;1.70;1.60;;;;;;;4.79;77.29;93997.09;5028333;28;20194;-77
2021/01/23 08:51:05;;;;;;;1.70;1.60;;;;;;;4.78;77.00;93997.28;5027596;28;20599;-76
2021/01/23 08:53:31;;;;;;;1.67;1.57;;;;;;;4.78;76.84;94000.63;5027176;28;20202;-77
2021/01/23 08:55:57;;;;;;;1.70;1.60;;;;;;;4.86;77.78;93989.50;5028003;28;20617;-77
2021/01/23 08:58:23;;;;;;;1.50;1.40;;;;;;;4.84;76.39;93991.44;5026846;28;20248;-76
2021/01/23 09:00:50;;;;;;;1.60;1.50;;;;;;;4.72;76.75;93990.34;5028679;28;20721;-77
2021/01/23 09:03:15;;;;;;;1.53;1.43;;;;;;;4.81;77.00;93991.81;5028846;28;20210;-77
2021/01/23 09:05:41;;;;;;;1.50;1.37;;;;;;;4.77;76.79;93986.28;5029300;28;20202;-77
2021/01/23 09:08:07;;;;;;;1.70;1.60;;;;;;;4.83;77.46;93987.31;5029012;28;20202;-77
2021/01/23 09:10:33;;;;;;;2.27;1.70;;;;;;;4.93;76.91;93984.47;5029822;28;20260;-77
2021/01/23 09:12:59;;;;;;;2.33;1.50;;;;;;;4.95;77.26;93975.69;5027756;28;20214;-78
2021/01/23 09:15:25;;;;;;;1.50;1.40;;;;;;;5.01;76.59;93972.38;5029217;28;20209;-77
2021/01/23 09:17:52;;;;;;;2.63;1.57;;;;;;;4.99;75.27;93973.56;5029979;28;20583;-78
2021/01/23 09:20:18;;;;;;;1.70;1.60;;;;;;;5.07;75.50;93974.22;5028550;28;20202;-77
2021/01/23 09:22:44;;;;;;;1.70;1.60;;;;;;;5.08;74.99;93968.16;5029816;28;20248;-77
2021/01/23 09:25:11;;;;;;;2.57;1.60;;;;;;;5.05;74.78;93967.72;5021327;28;20701;-78
2021/01/23 09:27:37;;;;;;;2.50;1.50;;;;;;;5.14;75.77;93967.41;5029704;28;20579;-77
2021/01/23 09:30:07;;;;;;;1.97;1.50;;;;;;;5.16;74.46;93967.25;5029252;28;20205;-77
2021/01/23 09:32:33;;;;;;;1.80;1.70;;;;;;;5.15;74.47;93966.44;5028975;28;20226;-77
2021/01/23 09:34:59;;;;;;;1.77;1.67;;;;;;;5.32;74.59;93978.94;5028914;28;20674;-77
2021/01/23 09:37:26;;;;;;;1.80;1.70;;;;;;;5.27;73.82;93976.94;5028868;28;20201;-77
2021/01/23 09:39:52;;;;;;;2.07;1.70;;;;;;;5.39;74.15;93980.56;5029722;28;20667;-77
2021/01/23 09:42:18;;;;;;;1.83;1.63;;;;;;;5.47;73.89;93987.31;5028952;28;20253;-77
2021/01/23 09:44:44;;;;;;;2.07;1.87;;;;;;;5.41;73.12;93983.72;5029151;28;20205;-77
2021/01/23 09:47:12;;;;;;;1.90;1.70;;;;;;;5.38;73.46;93981.56;5029121;28;20264;-77
2021/01/23 09:49:38;;;;;;;1.90;1.80;;;;;;;5.47;73.24;93979.66;5029207;28;20213;-77
2021/01/23 09:52:05;;;;;;;2.50;2.00;;;;;;;5.57;73.59;93980.13;5009759;28;20222;-77
2021/01/23 09:54:31;;;;;;;1.90;1.80;;;;;;;5.32;73.54;93976.41;5019595;28;20197;-77
2021/01/23 09:56:57;;;;;;;2.17;1.97;;;;;;;5.41;73.39;93980.38;5052193;28;20212;-77
2021/01/23 09:59:23;;;;;;;2.17;1.90;;;;;;;5.57;73.86;93980.13;5052892;28;20741;-77
2021/01/23 10:01:49;;;;;;;2.70;2.20;;;;;;;5.58;73.37;93973.28;5033491;28;20660;-77
2021/01/23 10:04:14;;;;;;;2.40;2.20;;;;;;;5.45;72.80;93979.06;5032492;28;20230;-77
2021/01/23 10:06:40;;;;;;;2.10;1.93;;;;;;;5.46;72.57;93967.88;5033109;28;20202;-77
2021/01/23 10:09:07;;;;;;;2.73;2.07;;;;;;;5.40;73.39;93978.81;5033106;28;20273;-77
2021/01/23 10:11:33;;;;;;;2.30;2.10;;;;;;;5.50;74.14;93971.63;5033316;28;20222;-77
2021/01/23 10:13:59;;;;;;;2.50;2.30;;;;;;;5.44;72.27;93967.25;5033312;28;20458;-77
2021/01/23 10:16:25;;;;;;;2.30;2.10;;;;;;;5.57;73.05;93972.47;5033110;28;20717;-77
2021/01/23 10:18:51;;;;;;;2.40;2.20;;;;;;;5.70;72.43;93972.56;5032665;28;20206;-77
2021/01/23 10:21:16;;;;;;;2.43;2.23;;;;;;;5.69;71.81;93960.00;5032892;28;20713;-77
2021/01/23 10:23:42;;;;;;;2.43;2.23;;;;;;;5.64;71.93;93963.09;5033518;28;20222;-77
2021/01/23 10:26:09;;;;;;;2.33;2.13;;;;;;;5.83;71.81;93964.97;5033104;28;20719;-77
2021/01/23 10:28:35;;;;;;;2.50;2.30;;;;;;;6.00;71.15;93952.72;5033058;28;20210;-77
2021/01/23 10:31:01;;;;;;;3.17;2.30;;;;;;;6.15;70.07;93955.19;5032789;28;20218;-77
2021/01/23 10:33:27;;;;;;;2.53;2.33;;;;;;;6.27;70.33;93951.09;5032348;28;20190;-77
2021/01/23 10:35:53;;;;;;;2.23;2.10;;;;;;;6.31;69.57;93952.31;5032259;28;20205;-77
2021/01/23 10:38:19;;;;;;;3.17;2.43;;;;;;;6.35;69.31;93948.38;5032805;28;20835;-77
2021/01/23 10:40:44;;;;;;;3.00;2.70;;;;;;;6.45;68.52;93948.81;5032414;28;20246;-77
2021/01/23 10:43:11;;;;;;;3.60;2.67;;;;;;;6.62;68.52;93940.81;5032564;28;20267;-77
2021/01/23 10:45:38;;;;;;;2.40;2.20;;;;;;;6.62;68.78;93941.59;5032384;28;20202;-77
2021/01/23 10:48:05;;;;;;;3.70;2.53;;;;;;;6.82;68.97;93933.97;5032323;28;20791;-77
2021/01/23 10:50:31;;;;;;;2.93;2.63;;;;;;;6.92;68.82;93937.75;5032517;28;20592;-77
2021/01/23 10:52:56;;;;;;;2.70;2.50;;;;;;;6.95;67.41;93931.44;5031443;28;20214;-77
2021/01/23 10:55:22;;;;;;;2.60;2.40;;;;;;;6.73;67.18;93935.94;5031609;28;20202;-77
2021/01/23 10:57:48;;;;;;;2.70;2.50;;;;;;;6.61;67.61;93937.47;5031994;28;20249;-77
2021/01/23 11:00:16;;;;;;;2.60;2.40;;;;;;;6.57;67.05;93929.38;5032009;28;20241;-77
2021/01/23 11:02:43;;;;;;;2.77;2.57;;;;;;;6.71;67.92;93925.09;5031732;28;20226;-78
2021/01/23 11:05:09;;;;;;;3.40;2.43;;;;;;;6.73;67.29;93920.59;5032436;28;20209;-77
2021/01/23 11:07:35;;;;;;;3.53;2.67;;;;;;;6.71;67.17;93922.56;5030567;28;20212;-77
2021/01/23 11:10:01;;;;;;;2.90;2.70;;;;;;;6.71;66.94;93916.66;5032233;28;20199;-77
2021/01/23 11:12:27;;;;;;;2.63;2.43;;;;;;;6.85;67.33;93913.91;5031825;28;20903;-77
2021/01/23 11:14:53;;;;;;;3.00;2.70;;;;;;;6.87;66.34;93909.41;5032001;28;20225;-78
2021/01/23 11:17:19;;;;;;;2.73;2.53;;;;;;;6.88;66.59;93908.41;5031301;28;20202;-77
2021/01/23 11:19:45;;;;;;;2.63;2.43;;;;;;;6.83;66.71;93900.53;5032106;28;20215;-77
2021/01/23 11:22:11;;;;;;;2.90;2.50;;;;;;;6.72;65.81;93897.75;5031741;28;20229;-77
2021/01/23 11:24:37;;;;;;;3.13;2.87;;;;;;;6.82;65.81;93898.16;5031339;28;20222;-77
2021/01/23 11:27:04;;;;;;;3.03;2.70;;;;;;;6.91;66.78;93895.25;5031297;28;20194;-77
2021/01/23 11:29:30;;;;;;;2.83;2.63;;;;;;;6.97;66.38;93901.31;5031137;28;20202;-77
2021/01/23 11:31:55;;;;;;;3.60;2.60;;;;;;;6.92;66.45;93896.03;5031764;28;20287;-77
2021/01/23 11:34:22;;;;;;;3.00;2.80;;;;;;;6.85;66.45;93890.09;5031185;28;20715;-77
2021/01/23 11:36:48;;;;;;;2.90;2.70;;;;;;;6.83;66.60;93892.06;5031048;28;20199;-77
2021/01/23 11:39:14;;;;;;;2.97;2.67;;;;;;;6.86;66.05;93884.00;5030647;28;20202;-77
2021/01/23 11:41:40;;;;;;;2.90;2.70;;;;;;;6.89;66.14;93891.28;5030701;28;20622;-77
2021/01/23 11:44:06;;;;;;;3.27;2.50;;;;;;;6.94;65.94;93886.38;5030697;28;20228;-77